sensor_id;sensor_type;location;lat;lon;timestamp;P1;durP1;ratioP1;P2;durP2;ratioP2
53056;SDS011;38940;50.096;4.012;2022-09-30T00:01:50;30.98;;;28.67;;
53056;SDS011;38940;50.096;4.012;2022-09-30T00:48:32;33.78;;;31.42;;
53056;SDS011;38940;50.096;4.012;2022-09-30T09:22:03;61.85;;;57.55;;
53056;SDS011;38940;50.096;4.012;2022-09-30T09:33:10;63.53;;;58.95;;
53056;SDS011;38940;50.096;4.012;2022-09-30T09:35:42;68.53;;;63.75;;
53056;SDS011;38940;50.096;4.012;2022-09-30T09:38:15;62.63;;;58.17;;
53056;SDS011;38940;50.096;4.012;2022-09-30T09:49:13;78.43;;;72.95;;
53056;SDS011;38940;50.096;4.012;2022-09-30T09:54:20;72.57;;;66.77;;
53056;SDS011;38940;50.096;4.012;2022-09-30T09:56:46;65.38;;;60.97;;
53056;SDS011;38940;50.096;4.012;2022-09-30T09:59:18;59.88;;;55.40;;
53056;SDS011;38940;50.096;4.012;2022-09-30T10:01:49;72.30;;;67.43;;
53056;SDS011;38940;50.096;4.012;2022-09-30T10:04:17;67.95;;;63.38;;
53056;SDS011;38940;50.096;4.012;2022-09-30T10:09:21;41.85;;;38.85;;
53056;SDS011;38940;50.096;4.012;2022-09-30T10:11:48;64.50;;;60.00;;
53056;SDS011;38940;50.096;4.012;2022-09-30T10:14:18;46.78;;;43.25;;
53056;SDS011;38940;50.096;4.012;2022-09-30T10:16:45;69.25;;;63.15;;
53056;SDS011;38940;50.096;4.012;2022-09-30T10:19:19;65.00;;;60.55;;
53056;SDS011;38940;50.096;4.012;2022-09-30T10:21:45;72.53;;;67.55;;
53056;SDS011;38940;50.096;4.012;2022-09-30T10:24:19;69.55;;;64.63;;
53056;SDS011;38940;50.096;4.012;2022-09-30T10:26:45;75.50;;;69.70;;
53056;SDS011;38940;50.096;4.012;2022-09-30T10:29:25;68.03;;;63.53;;
53056;SDS011;38940;50.096;4.012;2022-09-30T10:31:51;69.15;;;64.53;;
53056;SDS011;38940;50.096;4.012;2022-09-30T10:36:53;61.53;;;57.13;;
53056;SDS011;38940;50.096;4.012;2022-09-30T10:39:21;51.75;;;48.03;;
53056;SDS011;38940;50.096;4.012;2022-09-30T10:41:48;72.10;;;67.32;;
53056;SDS011;38940;50.096;4.012;2022-09-30T10:44:16;76.47;;;71.55;;
53056;SDS011;38940;50.096;4.012;2022-09-30T10:46:43;58.20;;;54.03;;
53056;SDS011;38940;50.096;4.012;2022-09-30T10:49:20;67.15;;;62.28;;
53056;SDS011;38940;50.096;4.012;2022-09-30T10:51:49;54.40;;;50.67;;
53056;SDS011;38940;50.096;4.012;2022-09-30T10:57:00;44.15;;;41.13;;
53056;SDS011;38940;50.096;4.012;2022-09-30T10:59:36;56.10;;;52.45;;
53056;SDS011;38940;50.096;4.012;2022-09-30T11:02:24;43.67;;;40.65;;
53056;SDS011;38940;50.096;4.012;2022-09-30T11:04:54;52.05;;;48.55;;
53056;SDS011;38940;50.096;4.012;2022-09-30T11:07:31;42.38;;;39.60;;
53056;SDS011;38940;50.096;4.012;2022-09-30T11:10:00;52.15;;;48.38;;
53056;SDS011;38940;50.096;4.012;2022-09-30T11:12:29;56.40;;;52.65;;
53056;SDS011;38940;50.096;4.012;2022-09-30T11:15:02;44.20;;;41.15;;
53056;SDS011;38940;50.096;4.012;2022-09-30T11:17:32;51.75;;;48.35;;
53056;SDS011;38940;50.096;4.012;2022-09-30T11:20:10;57.50;;;53.42;;
53056;SDS011;38940;50.096;4.012;2022-09-30T11:22:47;43.88;;;40.67;;
53056;SDS011;38940;50.096;4.012;2022-09-30T11:25:18;64.43;;;59.90;;
53056;SDS011;38940;50.096;4.012;2022-09-30T11:30:18;54.30;;;50.67;;
53056;SDS011;38940;50.096;4.012;2022-09-30T11:32:48;68.57;;;64.10;;
53056;SDS011;38940;50.096;4.012;2022-09-30T11:40:36;48.78;;;45.58;;
53056;SDS011;38940;50.096;4.012;2022-09-30T11:45:31;55.03;;;51.33;;
53056;SDS011;38940;50.096;4.012;2022-09-30T11:53:13;55.53;;;51.53;;
53056;SDS011;38940;50.096;4.012;2022-09-30T11:58:13;51.72;;;48.35;;
53056;SDS011;38940;50.096;4.012;2022-09-30T12:00:41;67.82;;;63.10;;
53056;SDS011;38940;50.096;4.012;2022-09-30T12:03:13;58.30;;;54.30;;
53056;SDS011;38940;50.096;4.012;2022-09-30T12:05:47;60.20;;;56.28;;
53056;SDS011;38940;50.096;4.012;2022-09-30T12:08:34;70.88;;;66.28;;
53056;SDS011;38940;50.096;4.012;2022-09-30T12:11:11;49.83;;;46.10;;
53056;SDS011;38940;50.096;4.012;2022-09-30T12:13:43;65.22;;;60.92;;
53056;SDS011;38940;50.096;4.012;2022-09-30T12:16:13;65.15;;;60.78;;
53056;SDS011;38940;50.096;4.012;2022-09-30T12:18:45;57.90;;;53.97;;
53056;SDS011;38940;50.096;4.012;2022-09-30T12:23:49;55.75;;;51.95;;
53056;SDS011;38940;50.096;4.012;2022-09-30T12:26:19;51.58;;;48.20;;
53056;SDS011;38940;50.096;4.012;2022-09-30T12:28:48;52.10;;;48.35;;
53056;SDS011;38940;50.096;4.012;2022-09-30T12:42:28;60.38;;;56.30;;
53056;SDS011;38940;50.096;4.012;2022-09-30T12:47:30;59.65;;;55.75;;
53056;SDS011;38940;50.096;4.012;2022-09-30T12:49:58;60.90;;;56.83;;
53056;SDS011;38940;50.096;4.012;2022-09-30T12:52:25;53.42;;;49.92;;
53056;SDS011;38940;50.096;4.012;2022-09-30T12:54:56;65.88;;;61.30;;
53056;SDS011;38940;50.096;4.012;2022-09-30T12:57:29;51.28;;;47.85;;
53056;SDS011;38940;50.096;4.012;2022-09-30T13:00:00;47.17;;;43.88;;
53056;SDS011;38940;50.096;4.012;2022-09-30T13:02:34;49.85;;;46.53;;
53056;SDS011;38940;50.096;4.012;2022-09-30T13:10:30;84.03;;;78.63;;
53056;SDS011;38940;50.096;4.012;2022-09-30T13:20:53;49.03;;;45.72;;
53056;SDS011;38940;50.096;4.012;2022-09-30T13:23:39;50.78;;;47.33;;
53056;SDS011;38940;50.096;4.012;2022-09-30T13:31:25;61.28;;;57.20;;
53056;SDS011;38940;50.096;4.012;2022-09-30T13:47:21;50.03;;;46.72;;
53056;SDS011;38940;50.096;4.012;2022-09-30T13:52:26;46.90;;;43.80;;
53056;SDS011;38940;50.096;4.012;2022-09-30T13:54:53;51.38;;;47.88;;
53056;SDS011;38940;50.096;4.012;2022-09-30T13:57:25;50.00;;;46.42;;
53056;SDS011;38940;50.096;4.012;2022-09-30T14:00:02;60.15;;;55.80;;
53056;SDS011;38940;50.096;4.012;2022-09-30T14:07:37;54.88;;;51.28;;
53056;SDS011;38940;50.096;4.012;2022-09-30T14:15:23;57.90;;;54.17;;
53056;SDS011;38940;50.096;4.012;2022-09-30T14:20:38;49.67;;;46.47;;
53056;SDS011;38940;50.096;4.012;2022-09-30T14:23:13;48.83;;;45.22;;
53056;SDS011;38940;50.096;4.012;2022-09-30T14:25:41;46.55;;;43.42;;
53056;SDS011;38940;50.096;4.012;2022-09-30T14:28:09;53.47;;;50.05;;
53056;SDS011;38940;50.096;4.012;2022-09-30T14:30:38;45.25;;;42.13;;
53056;SDS011;38940;50.096;4.012;2022-09-30T14:33:10;53.65;;;50.03;;
53056;SDS011;38940;50.096;4.012;2022-09-30T14:35:36;45.20;;;42.28;;
53056;SDS011;38940;50.096;4.012;2022-09-30T14:38:06;55.42;;;51.80;;
53056;SDS011;38940;50.096;4.012;2022-09-30T14:40:35;45.72;;;42.55;;
53056;SDS011;38940;50.096;4.012;2022-09-30T14:43:04;49.47;;;46.03;;
53056;SDS011;38940;50.096;4.012;2022-09-30T14:45:32;49.53;;;46.30;;
53056;SDS011;38940;50.096;4.012;2022-09-30T14:48:10;50.47;;;47.28;;
53056;SDS011;38940;50.096;4.012;2022-09-30T14:50:41;41.35;;;38.70;;
53056;SDS011;38940;50.096;4.012;2022-09-30T14:53:28;42.60;;;39.70;;
53056;SDS011;38940;50.096;4.012;2022-09-30T14:55:55;43.63;;;40.83;;
53056;SDS011;38940;50.096;4.012;2022-09-30T14:58:22;45.95;;;42.50;;
53056;SDS011;38940;50.096;4.012;2022-09-30T15:01:02;53.25;;;49.47;;
53056;SDS011;38940;50.096;4.012;2022-09-30T15:03:31;50.85;;;47.65;;
53056;SDS011;38940;50.096;4.012;2022-09-30T15:05:57;53.33;;;49.72;;
53056;SDS011;38940;50.096;4.012;2022-09-30T15:08:23;50.38;;;47.08;;
53056;SDS011;38940;50.096;4.012;2022-09-30T15:10:50;45.08;;;41.95;;
53056;SDS011;38940;50.096;4.012;2022-09-30T15:13:17;43.40;;;40.53;;
53056;SDS011;38940;50.096;4.012;2022-09-30T15:15:44;46.42;;;43.47;;
53056;SDS011;38940;50.096;4.012;2022-09-30T15:18:30;47.17;;;44.15;;
53056;SDS011;38940;50.096;4.012;2022-09-30T15:20:57;48.05;;;44.65;;
53056;SDS011;38940;50.096;4.012;2022-09-30T15:23:25;55.35;;;51.80;;
53056;SDS011;38940;50.096;4.012;2022-09-30T15:25:52;53.75;;;50.25;;
53056;SDS011;38940;50.096;4.012;2022-09-30T15:28:19;53.08;;;49.65;;
53056;SDS011;38940;50.096;4.012;2022-09-30T15:30:45;49.40;;;45.70;;
53056;SDS011;38940;50.096;4.012;2022-09-30T15:33:14;52.33;;;48.92;;
53056;SDS011;38940;50.096;4.012;2022-09-30T15:35:42;56.80;;;53.17;;
53056;SDS011;38940;50.096;4.012;2022-09-30T15:38:10;50.50;;;47.20;;
53056;SDS011;38940;50.096;4.012;2022-09-30T15:40:43;48.88;;;45.78;;
53056;SDS011;38940;50.096;4.012;2022-09-30T15:43:10;50.58;;;47.17;;
53056;SDS011;38940;50.096;4.012;2022-09-30T15:45:40;47.45;;;44.35;;
53056;SDS011;38940;50.096;4.012;2022-09-30T15:50:52;44.00;;;41.17;;
53056;SDS011;38940;50.096;4.012;2022-09-30T15:53:23;44.10;;;41.28;;
53056;SDS011;38940;50.096;4.012;2022-09-30T15:55:54;42.47;;;39.78;;
53056;SDS011;38940;50.096;4.012;2022-09-30T15:58:36;46.78;;;43.65;;
53056;SDS011;38940;50.096;4.012;2022-09-30T16:01:11;42.43;;;39.73;;
53056;SDS011;38940;50.096;4.012;2022-09-30T16:03:38;45.38;;;42.47;;
53056;SDS011;38940;50.096;4.012;2022-09-30T16:06:11;34.05;;;31.85;;
53056;SDS011;38940;50.096;4.012;2022-09-30T16:08:40;43.05;;;40.13;;
53056;SDS011;38940;50.096;4.012;2022-09-30T16:11:07;43.00;;;39.40;;
53056;SDS011;38940;50.096;4.012;2022-09-30T16:13:33;36.53;;;34.15;;
53056;SDS011;38940;50.096;4.012;2022-09-30T16:16:01;36.10;;;33.72;;
53056;SDS011;38940;50.096;4.012;2022-09-30T16:18:28;45.80;;;42.65;;
53056;SDS011;38940;50.096;4.012;2022-09-30T16:20:55;42.10;;;39.40;;
53056;SDS011;38940;50.096;4.012;2022-09-30T16:23:28;42.03;;;39.33;;
53056;SDS011;38940;50.096;4.012;2022-09-30T16:26:11;42.65;;;39.95;;
53056;SDS011;38940;50.096;4.012;2022-09-30T16:28:37;48.83;;;45.73;;
53056;SDS011;38940;50.096;4.012;2022-09-30T16:31:03;45.92;;;42.45;;
53056;SDS011;38940;50.096;4.012;2022-09-30T16:33:39;47.53;;;44.42;;
53056;SDS011;38940;50.096;4.012;2022-09-30T16:36:06;49.92;;;46.45;;
53056;SDS011;38940;50.096;4.012;2022-09-30T16:38:32;43.50;;;40.60;;
53056;SDS011;38940;50.096;4.012;2022-09-30T16:41:00;50.00;;;46.70;;
53056;SDS011;38940;50.096;4.012;2022-09-30T16:43:27;54.60;;;50.90;;
53056;SDS011;38940;50.096;4.012;2022-09-30T16:45:54;47.72;;;44.65;;
53056;SDS011;38940;50.096;4.012;2022-09-30T16:48:20;42.70;;;39.90;;
53056;SDS011;38940;50.096;4.012;2022-09-30T16:50:52;51.20;;;47.80;;
53056;SDS011;38940;50.096;4.012;2022-09-30T16:53:19;43.60;;;40.83;;
53056;SDS011;38940;50.096;4.012;2022-09-30T16:55:45;45.08;;;42.13;;
53056;SDS011;38940;50.096;4.012;2022-09-30T16:58:12;47.53;;;44.35;;
53056;SDS011;38940;50.096;4.012;2022-09-30T17:00:42;43.58;;;40.28;;
53056;SDS011;38940;50.096;4.012;2022-09-30T17:03:11;53.25;;;49.72;;
53056;SDS011;38940;50.096;4.012;2022-09-30T17:05:41;46.78;;;43.65;;
53056;SDS011;38940;50.096;4.012;2022-09-30T17:08:08;49.05;;;45.83;;
53056;SDS011;38940;50.096;4.012;2022-09-30T17:10:37;48.17;;;44.88;;
53056;SDS011;38940;50.096;4.012;2022-09-30T17:13:04;56.35;;;52.67;;
53056;SDS011;38940;50.096;4.012;2022-09-30T17:15:30;46.28;;;43.20;;
53056;SDS011;38940;50.096;4.012;2022-09-30T17:17:57;38.78;;;36.08;;
53056;SDS011;38940;50.096;4.012;2022-09-30T17:20:23;48.38;;;45.17;;
53056;SDS011;38940;50.096;4.012;2022-09-30T17:22:49;40.47;;;37.90;;
53056;SDS011;38940;50.096;4.012;2022-09-30T17:25:16;47.92;;;44.72;;
53056;SDS011;38940;50.096;4.012;2022-09-30T17:27:42;57.08;;;53.38;;
53056;SDS011;38940;50.096;4.012;2022-09-30T17:30:08;46.58;;;43.50;;
53056;SDS011;38940;50.096;4.012;2022-09-30T17:32:35;41.67;;;38.22;;
53056;SDS011;38940;50.096;4.012;2022-09-30T17:35:01;47.75;;;43.63;;
53056;SDS011;38940;50.096;4.012;2022-09-30T17:37:30;47.40;;;44.05;;
53056;SDS011;38940;50.096;4.012;2022-09-30T17:39:56;42.70;;;39.90;;
53056;SDS011;38940;50.096;4.012;2022-09-30T17:42:22;46.45;;;43.38;;
53056;SDS011;38940;50.096;4.012;2022-09-30T17:45:07;40.42;;;37.55;;
53056;SDS011;38940;50.096;4.012;2022-09-30T17:47:33;34.83;;;32.53;;
53056;SDS011;38940;50.096;4.012;2022-09-30T17:50:02;52.03;;;48.47;;
53056;SDS011;38940;50.096;4.012;2022-09-30T17:52:28;40.80;;;38.08;;
53056;SDS011;38940;50.096;4.012;2022-09-30T17:54:58;39.97;;;37.15;;
53056;SDS011;38940;50.096;4.012;2022-09-30T17:57:24;55.70;;;51.92;;
53056;SDS011;38940;50.096;4.012;2022-09-30T17:59:50;39.80;;;37.13;;
53056;SDS011;38940;50.096;4.012;2022-09-30T18:02:16;49.88;;;46.55;;
53056;SDS011;38940;50.096;4.012;2022-09-30T18:04:44;34.90;;;31.33;;
53056;SDS011;38940;50.096;4.012;2022-09-30T18:07:10;38.50;;;35.83;;
53056;SDS011;38940;50.096;4.012;2022-09-30T18:09:37;39.78;;;37.17;;
53056;SDS011;38940;50.096;4.012;2022-09-30T18:12:03;41.83;;;38.92;;
53056;SDS011;38940;50.096;4.012;2022-09-30T18:14:31;43.35;;;40.33;;
53056;SDS011;38940;50.096;4.012;2022-09-30T18:17:00;47.55;;;44.30;;
53056;SDS011;38940;50.096;4.012;2022-09-30T18:19:26;49.22;;;45.72;;
53056;SDS011;38940;50.096;4.012;2022-09-30T18:21:52;41.33;;;38.08;;
53056;SDS011;38940;50.096;4.012;2022-09-30T18:24:18;38.50;;;35.80;;
53056;SDS011;38940;50.096;4.012;2022-09-30T18:27:04;58.25;;;40.55;;
53056;SDS011;38940;50.096;4.012;2022-09-30T18:29:30;98.03;;;56.33;;
53056;SDS011;38940;50.096;4.012;2022-09-30T18:31:56;39.40;;;36.78;;
53056;SDS011;38940;50.096;4.012;2022-09-30T18:34:23;40.40;;;37.58;;
53056;SDS011;38940;50.096;4.012;2022-09-30T18:36:49;48.70;;;45.42;;
53056;SDS011;38940;50.096;4.012;2022-09-30T18:39:15;42.88;;;39.75;;
53056;SDS011;38940;50.096;4.012;2022-09-30T18:41:41;44.83;;;41.42;;
53056;SDS011;38940;50.096;4.012;2022-09-30T18:44:08;38.05;;;35.53;;
53056;SDS011;38940;50.096;4.012;2022-09-30T18:46:34;32.35;;;30.08;;
53056;SDS011;38940;50.096;4.012;2022-09-30T18:49:02;53.40;;;49.88;;
53056;SDS011;38940;50.096;4.012;2022-09-30T18:51:29;38.22;;;35.65;;
53056;SDS011;38940;50.096;4.012;2022-09-30T18:53:56;52.88;;;49.15;;
53056;SDS011;38940;50.096;4.012;2022-09-30T18:56:23;54.38;;;50.75;;
53056;SDS011;38940;50.096;4.012;2022-09-30T18:58:50;47.10;;;43.80;;
53056;SDS011;38940;50.096;4.012;2022-09-30T19:01:17;40.83;;;38.13;;
53056;SDS011;38940;50.096;4.012;2022-09-30T19:03:43;42.95;;;40.10;;
53056;SDS011;38940;50.096;4.012;2022-09-30T19:06:09;52.28;;;48.45;;
53056;SDS011;38940;50.096;4.012;2022-09-30T19:08:35;54.40;;;50.63;;
53056;SDS011;38940;50.096;4.012;2022-09-30T19:11:13;44.33;;;41.33;;
53056;SDS011;38940;50.096;4.012;2022-09-30T19:13:42;46.80;;;43.60;;
53056;SDS011;38940;50.096;4.012;2022-09-30T19:16:08;51.88;;;45.22;;
53056;SDS011;38940;50.096;4.012;2022-09-30T19:18:36;51.33;;;47.97;;
53056;SDS011;38940;50.096;4.012;2022-09-30T19:21:06;50.83;;;47.13;;
53056;SDS011;38940;50.096;4.012;2022-09-30T19:23:34;50.80;;;46.63;;
53056;SDS011;38940;50.096;4.012;2022-09-30T19:26:00;53.20;;;49.63;;
53056;SDS011;38940;50.096;4.012;2022-09-30T19:28:27;47.55;;;44.17;;
53056;SDS011;38940;50.096;4.012;2022-09-30T19:30:55;48.85;;;45.65;;
53056;SDS011;38940;50.096;4.012;2022-09-30T19:33:21;48.85;;;45.65;;
53056;SDS011;38940;50.096;4.012;2022-09-30T19:35:59;48.83;;;45.42;;
53056;SDS011;38940;50.096;4.012;2022-09-30T19:38:28;44.90;;;41.53;;
53056;SDS011;38940;50.096;4.012;2022-09-30T19:40:55;45.60;;;42.65;;
53056;SDS011;38940;50.096;4.012;2022-09-30T19:43:21;44.58;;;41.63;;
53056;SDS011;38940;50.096;4.012;2022-09-30T19:45:58;49.67;;;46.47;;
53056;SDS011;38940;50.096;4.012;2022-09-30T19:48:25;46.90;;;43.58;;
53056;SDS011;38940;50.096;4.012;2022-09-30T19:51:00;48.30;;;45.20;;
53056;SDS011;38940;50.096;4.012;2022-09-30T19:53:30;44.05;;;41.22;;
53056;SDS011;38940;50.096;4.012;2022-09-30T19:58:44;51.03;;;47.72;;
53056;SDS011;38940;50.096;4.012;2022-09-30T20:01:12;48.72;;;45.53;;
53056;SDS011;38940;50.096;4.012;2022-09-30T20:03:38;48.40;;;45.22;;
53056;SDS011;38940;50.096;4.012;2022-09-30T20:08:33;53.40;;;49.95;;
53056;SDS011;38940;50.096;4.012;2022-09-30T20:10:59;43.00;;;40.20;;
53056;SDS011;38940;50.096;4.012;2022-09-30T20:13:26;40.38;;;37.67;;
53056;SDS011;38940;50.096;4.012;2022-09-30T20:15:52;43.28;;;40.47;;
53056;SDS011;38940;50.096;4.012;2022-09-30T20:18:18;36.85;;;34.55;;
53056;SDS011;38940;50.096;4.012;2022-09-30T20:20:45;42.80;;;39.65;;
53056;SDS011;38940;50.096;4.012;2022-09-30T20:23:11;42.67;;;39.90;;
53056;SDS011;38940;50.096;4.012;2022-09-30T20:25:37;37.38;;;34.88;;
53056;SDS011;38940;50.096;4.012;2022-09-30T20:28:04;39.63;;;37.03;;
53056;SDS011;38940;50.096;4.012;2022-09-30T20:30:30;45.40;;;42.50;;
53056;SDS011;38940;50.096;4.012;2022-09-30T20:32:57;49.13;;;45.88;;
53056;SDS011;38940;50.096;4.012;2022-09-30T20:35:23;37.40;;;34.90;;
53056;SDS011;38940;50.096;4.012;2022-09-30T20:37:49;47.60;;;44.05;;
53056;SDS011;38940;50.096;4.012;2022-09-30T20:40:18;46.47;;;43.45;;
53056;SDS011;38940;50.096;4.012;2022-09-30T20:42:44;46.75;;;43.72;;
53056;SDS011;38940;50.096;4.012;2022-09-30T20:45:11;44.88;;;41.92;;
53056;SDS011;38940;50.096;4.012;2022-09-30T20:47:38;45.00;;;41.78;;
53056;SDS011;38940;50.096;4.012;2022-09-30T20:50:04;50.55;;;47.05;;
53056;SDS011;38940;50.096;4.012;2022-09-30T20:52:31;46.45;;;43.22;;
53056;SDS011;38940;50.096;4.012;2022-09-30T20:54:57;47.20;;;44.17;;
53056;SDS011;38940;50.096;4.012;2022-09-30T20:57:24;42.10;;;39.30;;
53056;SDS011;38940;50.096;4.012;2022-09-30T20:59:53;46.25;;;43.15;;
53056;SDS011;38940;50.096;4.012;2022-09-30T21:02:20;55.60;;;51.80;;
53056;SDS011;38940;50.096;4.012;2022-09-30T21:04:49;42.63;;;39.92;;
53056;SDS011;38940;50.096;4.012;2022-09-30T21:07:16;52.53;;;48.92;;
53056;SDS011;38940;50.096;4.012;2022-09-30T21:09:42;53.90;;;50.35;;
53056;SDS011;38940;50.096;4.012;2022-09-30T21:12:08;47.53;;;44.05;;
53056;SDS011;38940;50.096;4.012;2022-09-30T21:14:34;48.55;;;45.42;;
53056;SDS011;38940;50.096;4.012;2022-09-30T21:17:00;39.60;;;36.80;;
53056;SDS011;38940;50.096;4.012;2022-09-30T21:19:26;46.15;;;43.15;;
53056;SDS011;38940;50.096;4.012;2022-09-30T21:21:52;45.70;;;42.72;;
53056;SDS011;38940;50.096;4.012;2022-09-30T21:24:20;54.97;;;51.38;;
53056;SDS011;38940;50.096;4.012;2022-09-30T21:26:46;39.28;;;36.58;;
53056;SDS011;38940;50.096;4.012;2022-09-30T21:29:12;45.55;;;42.58;;
53056;SDS011;38940;50.096;4.012;2022-09-30T21:31:39;41.65;;;38.95;;
53056;SDS011;38940;50.096;4.012;2022-09-30T21:34:05;46.92;;;42.97;;
53056;SDS011;38940;50.096;4.012;2022-09-30T21:36:31;42.50;;;39.78;;
53056;SDS011;38940;50.096;4.012;2022-09-30T21:39:00;56.78;;;53.00;;
53056;SDS011;38940;50.096;4.012;2022-09-30T21:41:27;56.03;;;52.42;;
53056;SDS011;38940;50.096;4.012;2022-09-30T21:43:53;49.33;;;46.13;;
53056;SDS011;38940;50.096;4.012;2022-09-30T21:46:19;51.97;;;48.45;;
53056;SDS011;38940;50.096;4.012;2022-09-30T21:48:46;53.25;;;49.63;;
53056;SDS011;38940;50.096;4.012;2022-09-30T21:51:12;60.65;;;56.70;;
53056;SDS011;38940;50.096;4.012;2022-09-30T21:53:38;58.83;;;54.83;;
53056;SDS011;38940;50.096;4.012;2022-09-30T21:56:05;65.18;;;60.13;;
53056;SDS011;38940;50.096;4.012;2022-09-30T21:58:31;60.92;;;56.92;;
53056;SDS011;38940;50.096;4.012;2022-09-30T22:00:58;67.32;;;62.95;;
53056;SDS011;38940;50.096;4.012;2022-09-30T22:03:26;58.30;;;54.50;;
53056;SDS011;38940;50.096;4.012;2022-09-30T22:05:53;54.58;;;51.03;;
53056;SDS011;38940;50.096;4.012;2022-09-30T22:08:19;71.40;;;66.60;;
53056;SDS011;38940;50.096;4.012;2022-09-30T22:10:46;72.25;;;67.22;;
53056;SDS011;38940;50.096;4.012;2022-09-30T22:13:13;62.03;;;57.83;;
53056;SDS011;38940;50.096;4.012;2022-09-30T22:15:39;58.55;;;54.72;;
53056;SDS011;38940;50.096;4.012;2022-09-30T22:18:08;69.80;;;65.15;;
53056;SDS011;38940;50.096;4.012;2022-09-30T22:20:34;75.07;;;70.10;;
53056;SDS011;38940;50.096;4.012;2022-09-30T22:23:00;80.78;;;75.45;;
53056;SDS011;38940;50.096;4.012;2022-09-30T22:25:26;80.63;;;75.30;;
53056;SDS011;38940;50.096;4.012;2022-09-30T22:27:54;84.35;;;78.30;;
53056;SDS011;38940;50.096;4.012;2022-09-30T22:30:20;71.95;;;67.22;;
53056;SDS011;38940;50.096;4.012;2022-09-30T22:32:46;66.93;;;62.53;;
53056;SDS011;38940;50.096;4.012;2022-09-30T22:35:32;60.33;;;56.40;;
53056;SDS011;38940;50.096;4.012;2022-09-30T22:38:17;67.07;;;62.70;;
53056;SDS011;38940;50.096;4.012;2022-09-30T22:40:43;64.65;;;60.45;;
53056;SDS011;38940;50.096;4.012;2022-09-30T22:43:28;73.60;;;68.88;;
53056;SDS011;38940;50.096;4.012;2022-09-30T22:45:59;70.53;;;65.95;;
53056;SDS011;38940;50.096;4.012;2022-09-30T22:48:26;63.58;;;59.13;;
53056;SDS011;38940;50.096;4.012;2022-09-30T22:57:19;81.65;;;76.07;;
53056;SDS011;38940;50.096;4.012;2022-09-30T22:59:45;81.47;;;76.15;;
53056;SDS011;38940;50.096;4.012;2022-09-30T23:02:13;70.60;;;66.07;;
53056;SDS011;38940;50.096;4.012;2022-09-30T23:04:42;77.80;;;72.65;;
53056;SDS011;38940;50.096;4.012;2022-09-30T23:10:12;68.95;;;64.53;;
53056;SDS011;38940;50.096;4.012;2022-09-30T23:12:56;75.50;;;70.55;;
53056;SDS011;38940;50.096;4.012;2022-09-30T23:15:23;76.85;;;71.78;;
53056;SDS011;38940;50.096;4.012;2022-09-30T23:18:09;77.97;;;72.95;;
53056;SDS011;38940;50.096;4.012;2022-09-30T23:21:04;64.72;;;60.50;;
53056;SDS011;38940;50.096;4.012;2022-09-30T23:29:19;55.63;;;52.00;;
53056;SDS011;38940;50.096;4.012;2022-09-30T23:32:07;84.93;;;79.35;;
53056;SDS011;38940;50.096;4.012;2022-09-30T23:34:39;82.30;;;76.95;;
53056;SDS011;38940;50.096;4.012;2022-09-30T23:37:05;82.68;;;77.32;;
53056;SDS011;38940;50.096;4.012;2022-09-30T23:42:36;66.28;;;61.65;;
53056;SDS011;38940;50.096;4.012;2022-09-30T23:45:02;73.00;;;68.18;;
53056;SDS011;38940;50.096;4.012;2022-09-30T23:47:47;80.25;;;75.07;;
53056;SDS011;38940;50.096;4.012;2022-09-30T23:50:21;74.32;;;69.43;;
53056;SDS011;38940;50.096;4.012;2022-09-30T23:56:11;90.68;;;84.57;;
